Terminal Aerodrome Forecast
Issued by NWS

Home | Current Version | Previous Version | Text Only | Print | Product List | Glossary On
Versions: 1 2 3 4 5 6 7 8 9 10 11 12 13 14 15
934
FTUS45 KRIW 192329
TAFRKS
TAF
KRKS 192329Z 2000/2024 07015KT 3SM -SN OVC035
      TEMPO 2000/2003 2SM -SN BKN026
     FM200600 07011KT P6SM VCSH BKN035
     FM201300 24009KT P6SM BKN070
     FM201800 25012G20KT P6SM BKN070=

USA.gov is the U.S. government's official web portal to all federal, state and local government web resources and services.